Time;durP1;ratioP1;P1;durP2;ratioP2;P2;SDS_P1;SDS_P2;PMS_P1;PMS_P2;Temp;Humidity;BMP_temperature;BMP_pressure;BME280_temperature;BME280_humidity;BME280_pressure;Samples;Min_cycle;Max_cycle;Signal;HPM_P1;HPM_P2
2022/02/26 00:01:47;;;;;;;23.73;10.33;;;;;;;;;;5013974;28;20402;-45
2022/02/26 00:04:13;;;;;;;21.75;9.75;;;;;;;;;;5013824;28;20418;-46
2022/02/26 00:06:39;;;;;;;15.68;10.20;;;;;;;;;;5013859;28;20664;-46
2022/02/26 00:09:06;;;;;;;18.05;10.18;;;;;;;;;;5014210;28;20180;-46
2022/02/26 00:11:33;;;;;;;25.45;10.82;;;;;;;;;;5013843;28;20184;-46
2022/02/26 00:14:01;;;;;;;16.83;10.45;;;;;;;;;;5013424;28;20172;-46
2022/02/26 00:16:27;;;;;;;16.02;9.50;;;;;;;;;;5013832;28;20195;-45
2022/02/26 00:18:52;;;;;;;15.20;9.83;;;;;;;;;;5013741;28;20200;-46
2022/02/26 00:21:18;;;;;;;17.87;10.30;;;;;;;;;;5014085;28;20399;-46
2022/02/26 00:23:44;;;;;;;17.52;9.98;;;;;;;;;;5013886;28;20458;-46
2022/02/26 00:26:11;;;;;;;22.73;10.52;;;;;;;;;;5013301;28;20632;-45
2022/02/26 00:28:37;;;;;;;24.85;11.35;;;;;;;;;;5013442;28;20164;-46
2022/02/26 00:31:03;;;;;;;20.87;11.03;;;;;;;;;;5013242;28;20256;-46
2022/02/26 00:33:29;;;;;;;24.58;11.98;;;;;;;;;;5013344;28;20484;-46
2022/02/26 00:35:59;;;;;;;26.23;12.00;;;;;;;;;;5013329;28;20645;-46
2022/02/26 00:38:25;;;;;;;30.55;9.80;;;;;;;;;;5013117;28;20419;-45
2022/02/26 00:40:51;;;;;;;21.25;11.82;;;;;;;;;;5013105;28;20294;-45
2022/02/26 00:43:17;;;;;;;20.15;11.57;;;;;;;;;;5013240;28;20203;-45
2022/02/26 00:45:43;;;;;;;26.63;11.83;;;;;;;;;;5012932;28;20176;-46
2022/02/26 00:48:09;;;;;;;17.40;11.30;;;;;;;;;;5013156;28;20427;-46
2022/02/26 00:50:35;;;;;;;19.60;10.47;;;;;;;;;;5012869;28;20443;-45
2022/02/26 00:53:01;;;;;;;27.13;11.57;;;;;;;;;;5013090;28;20403;-45
2022/02/26 00:55:27;;;;;;;20.70;11.87;;;;;;;;;;5012990;28;20412;-45
2022/02/26 00:57:53;;;;;;;21.85;11.35;;;;;;;;;;5012796;28;20442;-46
2022/02/26 01:00:19;;;;;;;28.37;11.30;;;;;;;;;;5012281;28;20634;-46
2022/02/26 01:02:46;;;;;;;28.10;11.90;;;;;;;;;;5013260;28;20465;-46
2022/02/26 01:05:12;;;;;;;18.65;11.38;;;;;;;;;;5012736;28;20160;-44
2022/02/26 01:07:38;;;;;;;16.80;10.10;;;;;;;;;;5012371;28;20188;-44
2022/02/26 01:10:04;;;;;;;32.90;14.30;;;;;;;;;;5011716;28;20896;-46
2022/02/26 01:12:30;;;;;;;26.50;12.48;;;;;;;;;;5012254;28;20410;-44
2022/02/26 01:14:56;;;;;;;16.37;10.80;;;;;;;;;;5012193;28;20247;-46
2022/02/26 01:17:22;;;;;;;18.17;11.00;;;;;;;;;;5011504;28;20427;-46
2022/02/26 01:19:49;;;;;;;29.17;11.00;;;;;;;;;;5011157;28;20168;-47
2022/02/26 01:22:15;;;;;;;24.73;11.55;;;;;;;;;;5011141;28;20203;-44
2022/02/26 01:24:41;;;;;;;21.73;10.73;;;;;;;;;;5012093;28;20540;-46
2022/02/26 01:27:07;;;;;;;26.60;11.73;;;;;;;;;;5011701;28;20805;-45
2022/02/26 01:29:35;;;;;;;21.50;11.60;;;;;;;;;;5011860;28;20210;-45
2022/02/26 01:32:01;;;;;;;18.10;10.73;;;;;;;;;;5012068;28;20910;-44
2022/02/26 01:34:27;;;;;;;17.50;11.38;;;;;;;;;;5011930;28;20180;-46
2022/02/26 01:36:53;;;;;;;32.23;11.27;;;;;;;;;;5011955;28;20216;-45
2022/02/26 01:39:24;;;;;;;25.70;11.10;;;;;;;;;;5011577;28;20416;-44
2022/02/26 01:41:50;;;;;;;21.13;11.68;;;;;;;;;;5011797;28;20419;-44
2022/02/26 01:44:16;;;;;;;28.27;10.70;;;;;;;;;;5011834;28;20160;-45
2022/02/26 01:46:42;;;;;;;23.60;11.13;;;;;;;;;;5011782;28;20584;-44
2022/02/26 01:49:08;;;;;;;22.93;10.50;;;;;;;;;;5011622;28;20387;-45
2022/02/26 01:51:34;;;;;;;24.77;10.87;;;;;;;;;;5011823;28;20407;-45
2022/02/26 01:54:00;;;;;;;19.75;10.25;;;;;;;;;;5011678;28;20407;-45
2022/02/26 01:56:26;;;;;;;35.67;11.83;;;;;;;;;;5011397;28;20191;-45
2022/02/26 01:58:52;;;;;;;30.83;11.68;;;;;;;;;;5011490;28;20453;-49
2022/02/26 02:01:18;;;;;;;23.30;10.07;;;;;;;;;;5011679;28;20181;-44
2022/02/26 02:03:44;;;;;;;26.47;10.90;;;;;;;;;;5011533;28;20970;-44
2022/02/26 02:06:11;;;;;;;17.93;11.13;;;;;;;;;;5011575;28;20747;-44
2022/02/26 02:08:37;;;;;;;18.88;11.85;;;;;;;;;;5011556;28;20913;-44
2022/02/26 02:11:03;;;;;;;19.50;11.13;;;;;;;;;;5011281;28;20168;-45
2022/02/26 02:13:29;;;;;;;25.80;10.60;;;;;;;;;;5011613;28;20172;-45
2022/02/26 02:15:55;;;;;;;24.05;10.88;;;;;;;;;;5011632;28;20408;-45
2022/02/26 02:18:21;;;;;;;18.42;9.57;;;;;;;;;;5011565;28;20687;-47
2022/02/26 02:20:48;;;;;;;24.20;11.63;;;;;;;;;;5011380;28;20177;-44
2022/02/26 02:23:14;;;;;;;27.27;11.05;;;;;;;;;;5011263;28;20447;-44
2022/02/26 02:25:40;;;;;;;28.58;12.10;;;;;;;;;;5011178;28;20707;-44
2022/02/26 02:28:07;;;;;;;16.47;10.40;;;;;;;;;;5011430;28;20192;-44
2022/02/26 02:30:33;;;;;;;23.10;10.73;;;;;;;;;;5011093;28;20402;-46
2022/02/26 02:32:59;;;;;;;26.60;13.07;;;;;;;;;;5011307;28;20172;-44
2022/02/26 02:35:32;;;;;;;27.42;13.15;;;;;;;;;;5011235;28;20750;-45
2022/02/26 02:38:01;;;;;;;27.13;12.20;;;;;;;;;;5011590;28;20206;-44
2022/02/26 02:40:28;;;;;;;26.45;13.63;;;;;;;;;;5011347;28;20196;-47
2022/02/26 02:42:55;;;;;;;19.05;13.40;;;;;;;;;;5011257;28;20208;-46
2022/02/26 02:45:21;;;;;;;36.53;13.18;;;;;;;;;;5011104;28;20168;-44
2022/02/26 02:47:47;;;;;;;24.42;14.27;;;;;;;;;;5011418;28;20188;-45
2022/02/26 02:50:15;;;;;;;22.95;13.20;;;;;;;;;;5011115;28;20227;-44
2022/02/26 02:52:41;;;;;;;26.85;13.43;;;;;;;;;;5010862;28;20176;-45
2022/02/26 02:55:08;;;;;;;30.25;13.27;;;;;;;;;;5010959;28;20183;-45
2022/02/26 02:57:34;;;;;;;29.80;15.07;;;;;;;;;;5010877;28;20291;-45
2022/02/26 03:00:01;;;;;;;28.27;13.77;;;;;;;;;;5011188;28;20253;-45
2022/02/26 03:02:27;;;;;;;26.10;12.85;;;;;;;;;;5010891;28;21100;-45
2022/02/26 03:04:53;;;;;;;29.17;13.30;;;;;;;;;;5011449;28;20229;-45
2022/02/26 03:07:19;;;;;;;40.23;13.60;;;;;;;;;;5010640;28;20825;-44
2022/02/26 03:09:45;;;;;;;31.63;13.43;;;;;;;;;;5010563;28;20490;-44
2022/02/26 03:12:11;;;;;;;29.90;13.20;;;;;;;;;;5010974;28;20399;-44
2022/02/26 03:14:37;;;;;;;33.55;13.38;;;;;;;;;;5010822;28;20407;-46
2022/02/26 03:17:03;;;;;;;27.17;14.35;;;;;;;;;;5010737;28;20184;-45
2022/02/26 03:19:29;;;;;;;35.70;14.65;;;;;;;;;;5010565;28;20186;-47
2022/02/26 03:21:55;;;;;;;26.10;12.77;;;;;;;;;;5010563;28;20164;-44
2022/02/26 03:24:21;;;;;;;23.30;12.60;;;;;;;;;;5010742;28;20414;-44
2022/02/26 03:26:53;;;;;;;21.73;14.07;;;;;;;;;;5010734;28;20415;-44
2022/02/26 03:29:19;;;;;;;29.17;13.10;;;;;;;;;;5010651;28;20413;-44
2022/02/26 03:31:46;;;;;;;35.95;14.23;;;;;;;;;;5010678;28;20252;-44
2022/02/26 03:34:12;;;;;;;31.73;13.48;;;;;;;;;;5010779;28;20160;-46
2022/02/26 03:36:38;;;;;;;22.77;13.00;;;;;;;;;;5010461;28;20180;-44
2022/02/26 03:39:05;;;;;;;35.77;11.93;;;;;;;;;;5011286;28;20164;-44
2022/02/26 03:41:31;;;;;;;34.50;14.10;;;;;;;;;;5014272;28;20867;-44
2022/02/26 03:43:57;;;;;;;27.37;13.80;;;;;;;;;;5014152;28;20227;-45
2022/02/26 03:46:23;;;;;;;23.20;12.43;;;;;;;;;;5014215;28;20895;-45
2022/02/26 03:48:50;;;;;;;22.63;13.30;;;;;;;;;;5014221;28;20861;-45
2022/02/26 03:51:16;;;;;;;18.85;12.80;;;;;;;;;;5014111;28;20672;-44
2022/02/26 03:53:42;;;;;;;22.30;13.70;;;;;;;;;;5014172;28;20235;-44
2022/02/26 03:56:08;;;;;;;25.65;13.00;;;;;;;;;;5014152;28;20210;-45
2022/02/26 03:58:34;;;;;;;24.90;14.50;;;;;;;;;;5013942;28;20199;-45
2022/02/26 04:01:00;;;;;;;27.00;13.23;;;;;;;;;;5012918;28;20184;-45
2022/02/26 04:03:26;;;;;;;26.50;12.40;;;;;;;;;;5013201;28;20447;-45
2022/02/26 04:05:52;;;;;;;22.15;13.30;;;;;;;;;;5013708;28;20462;-45
2022/02/26 04:08:18;;;;;;;31.70;14.97;;;;;;;;;;5013769;28;20769;-44
2022/02/26 04:10:44;;;;;;;22.25;14.63;;;;;;;;;;5013489;28;21003;-45
2022/02/26 04:13:10;;;;;;;39.93;13.83;;;;;;;;;;5013552;28;20283;-44
2022/02/26 04:15:36;;;;;;;29.83;14.13;;;;;;;;;;5013610;28;20407;-45
2022/02/26 04:18:01;;;;;;;19.97;11.83;;;;;;;;;;5013450;28;20502;-44
2022/02/26 04:20:28;;;;;;;30.13;13.53;;;;;;;;;;5013265;28;20434;-44
2022/02/26 04:22:54;;;;;;;25.77;12.32;;;;;;;;;;5013436;28;20459;-45
2022/02/26 04:25:19;;;;;;;22.03;11.93;;;;;;;;;;5013573;28;20697;-44
2022/02/26 04:27:45;;;;;;;28.43;12.77;;;;;;;;;;5013283;28;20923;-45
2022/02/26 04:30:11;;;;;;;25.77;12.10;;;;;;;;;;5013080;28;20403;-45
2022/02/26 04:32:38;;;;;;;32.60;13.15;;;;;;;;;;5013179;28;20461;-45
2022/02/26 04:35:05;;;;;;;28.85;12.65;;;;;;;;;;5013182;28;20267;-45
2022/02/26 04:37:31;;;;;;;28.58;14.45;;;;;;;;;;5012955;28;20254;-45
2022/02/26 04:39:58;;;;;;;23.70;13.80;;;;;;;;;;5012933;28;20640;-44
2022/02/26 04:42:25;;;;;;;25.30;14.63;;;;;;;;;;5012969;28;20192;-46
2022/02/26 04:44:51;;;;;;;44.03;14.55;;;;;;;;;;5013029;28;20638;-45
2022/02/26 04:47:17;;;;;;;21.07;13.60;;;;;;;;;;5012734;28;20219;-44
2022/02/26 04:49:43;;;;;;;38.30;15.30;;;;;;;;;;5012648;28;20432;-44
2022/02/26 04:52:09;;;;;;;28.10;14.27;;;;;;;;;;5011983;28;20761;-45
2022/02/26 04:54:35;;;;;;;26.95;15.07;;;;;;;;;;5013125;28;20803;-44
2022/02/26 04:57:01;;;;;;;30.95;13.65;;;;;;;;;;5012649;28;20200;-45
2022/02/26 04:59:27;;;;;;;37.30;17.13;;;;;;;;;;5012915;28;20616;-45
2022/02/26 05:01:53;;;;;;;20.40;13.38;;;;;;;;;;5012502;28;20431;-44
2022/02/26 05:04:19;;;;;;;31.73;15.27;;;;;;;;;;5012628;28;20197;-46
2022/02/26 05:06:45;;;;;;;22.63;14.30;;;;;;;;;;5012515;28;20494;-47
2022/02/26 05:09:11;;;;;;;36.20;16.00;;;;;;;;;;5012363;28;20668;-45
2022/02/26 05:11:37;;;;;;;28.87;15.03;;;;;;;;;;5012564;28;20403;-44
2022/02/26 05:14:03;;;;;;;22.57;13.57;;;;;;;;;;5012530;28;20418;-44
2022/02/26 05:16:29;;;;;;;30.80;17.63;;;;;;;;;;5012235;28;20458;-44
2022/02/26 05:18:55;;;;;;;28.03;15.33;;;;;;;;;;5012326;28;20510;-45
2022/02/26 05:21:21;;;;;;;24.05;14.55;;;;;;;;;;5012489;28;20408;-44
2022/02/26 05:23:48;;;;;;;34.92;16.65;;;;;;;;;;5012561;28;20782;-45
2022/02/26 05:26:14;;;;;;;30.55;16.15;;;;;;;;;;5012501;28;20234;-44
2022/02/26 05:28:40;;;;;;;33.80;15.85;;;;;;;;;;5012452;28;20706;-44
2022/02/26 05:31:06;;;;;;;33.22;17.48;;;;;;;;;;5012162;28;20226;-44
2022/02/26 05:33:33;;;;;;;30.20;16.42;;;;;;;;;;5012170;28;20265;-45
2022/02/26 05:35:59;;;;;;;30.50;16.73;;;;;;;;;;5012052;28;20190;-47
2022/02/26 05:38:25;;;;;;;33.30;17.13;;;;;;;;;;5012000;28;20229;-48
2022/02/26 05:40:51;;;;;;;33.40;16.65;;;;;;;;;;5011900;28;20396;-46
2022/02/26 05:43:17;;;;;;;33.15;16.35;;;;;;;;;;5011881;28;20189;-44
2022/02/26 05:45:43;;;;;;;28.90;16.60;;;;;;;;;;5011852;28;20169;-45
2022/02/26 05:48:09;;;;;;;39.17;19.47;;;;;;;;;;5012905;28;20787;-45
2022/02/26 05:50:35;;;;;;;38.87;17.37;;;;;;;;;;5011495;28;20899;-45
2022/02/26 05:53:02;;;;;;;30.02;16.90;;;;;;;;;;5012042;28;20458;-45
2022/02/26 05:55:28;;;;;;;35.65;17.58;;;;;;;;;;5011719;28;20172;-45
2022/02/26 05:57:54;;;;;;;28.27;17.25;;;;;;;;;;5010273;28;20616;-45
2022/02/26 06:00:20;;;;;;;30.90;17.77;;;;;;;;;;5011312;28;20218;-45
2022/02/26 06:02:46;;;;;;;36.03;19.97;;;;;;;;;;5011323;28;20469;-45
2022/02/26 06:05:12;;;;;;;31.33;16.33;;;;;;;;;;5011780;28;20395;-45
2022/02/26 06:07:38;;;;;;;34.93;19.03;;;;;;;;;;5011629;28;20258;-45
2022/02/26 06:10:05;;;;;;;30.83;17.03;;;;;;;;;;5011460;28;20392;-45
2022/02/26 06:12:31;;;;;;;31.17;16.77;;;;;;;;;;5011478;28;20618;-45
2022/02/26 06:14:57;;;;;;;32.70;17.35;;;;;;;;;;5011440;28;20272;-45
2022/02/26 06:17:23;;;;;;;45.30;18.15;;;;;;;;;;5011412;28;20681;-45
2022/02/26 06:19:49;;;;;;;30.95;17.77;;;;;;;;;;5011291;28;20710;-45
2022/02/26 06:22:16;;;;;;;29.27;16.67;;;;;;;;;;5011356;28;20200;-45
2022/02/26 06:24:42;;;;;;;49.53;19.55;;;;;;;;;;5011560;28;20168;-45
2022/02/26 06:27:08;;;;;;;43.55;17.58;;;;;;;;;;5010018;28;20277;-45
2022/02/26 06:29:34;;;;;;;70.77;19.43;;;;;;;;;;5010923;28;20208;-45
2022/02/26 06:32:00;;;;;;;110.45;23.20;;;;;;;;;;5011308;28;20413;-45
2022/02/26 06:34:27;;;;;;;54.57;17.47;;;;;;;;;;5011377;28;20164;-45
2022/02/26 06:36:53;;;;;;;64.07;18.17;;;;;;;;;;5011271;28;20537;-45
2022/02/26 06:39:19;;;;;;;104.22;21.95;;;;;;;;;;5011089;28;20164;-45
2022/02/26 06:41:45;;;;;;;161.97;26.03;;;;;;;;;;5011235;28;20175;-45
2022/02/26 06:44:11;;;;;;;68.37;21.03;;;;;;;;;;5011199;28;20542;-45
2022/02/26 06:46:38;;;;;;;77.73;20.67;;;;;;;;;;5011159;28;20795;-45
2022/02/26 06:49:05;;;;;;;128.07;25.70;;;;;;;;;;5011122;28;21060;-45
2022/02/26 06:51:31;;;;;;;157.85;25.58;;;;;;;;;;5011263;28;20172;-45
2022/02/26 06:53:57;;;;;;;78.68;22.77;;;;;;;;;;5011302;28;20687;-45
2022/02/26 06:56:23;;;;;;;86.50;24.55;;;;;;;;;;5011153;28;20184;-45
2022/02/26 06:58:52;;;;;;;49.80;19.02;;;;;;;;;;5011358;28;20208;-45
2022/02/26 07:01:17;;;;;;;99.32;25.38;;;;;;;;;;5011294;28;20191;-45
2022/02/26 07:03:43;;;;;;;128.63;26.80;;;;;;;;;;5010980;28;20230;-46
2022/02/26 07:06:10;;;;;;;125.30;26.13;;;;;;;;;;5009013;28;20407;-45
2022/02/26 07:08:36;;;;;;;62.05;19.98;;;;;;;;;;5010435;28;20892;-45
2022/02/26 07:11:02;;;;;;;137.63;26.45;;;;;;;;;;5010718;28;20204;-45
2022/02/26 07:13:28;;;;;;;75.80;22.73;;;;;;;;;;5010881;28;20165;-45
2022/02/26 07:15:54;;;;;;;97.00;25.85;;;;;;;;;;5014693;28;20244;-45
2022/02/26 07:18:20;;;;;;;69.20;23.80;;;;;;;;;;5014670;28;20270;-45
2022/02/26 07:20:46;;;;;;;101.97;23.00;;;;;;;;;;5014522;28;20195;-45
2022/02/26 07:23:12;;;;;;;148.60;28.70;;;;;;;;;;5014527;28;20688;-45
2022/02/26 07:25:42;;;;;;;229.03;32.60;;;;;;;;;;5014941;28;20784;-45
2022/02/26 07:28:08;;;;;;;69.53;24.65;;;;;;;;;;5014615;28;20415;-45
2022/02/26 07:30:34;;;;;;;101.60;24.57;;;;;;;;;;5014478;28;20219;-45
2022/02/26 07:33:00;;;;;;;75.83;27.43;;;;;;;;;;5014400;28;20445;-45
2022/02/26 07:35:26;;;;;;;103.60;24.17;;;;;;;;;;5014399;28;20417;-45
2022/02/26 07:37:52;;;;;;;104.53;26.07;;;;;;;;;;5014473;28;21003;-45
2022/02/26 07:40:18;;;;;;;47.00;19.90;;;;;;;;;;5013947;28;20395;-45
2022/02/26 07:42:44;;;;;;;80.60;20.77;;;;;;;;;;5014134;28;20516;-45
2022/02/26 07:45:10;;;;;;;55.45;21.27;;;;;;;;;;5014219;28;20396;-45
2022/02/26 07:47:36;;;;;;;68.45;22.63;;;;;;;;;;5014361;28;20184;-45
2022/02/26 07:50:03;;;;;;;65.10;20.42;;;;;;;;;;5014385;28;20169;-45
2022/02/26 07:52:31;;;;;;;165.27;26.60;;;;;;;;;;5014040;28;20185;-45
2022/02/26 07:54:57;;;;;;;54.50;19.70;;;;;;;;;;5013956;28;20186;-45
2022/02/26 07:57:23;;;;;;;143.45;24.23;;;;;;;;;;5013658;28;20675;-45
2022/02/26 07:59:49;;;;;;;89.93;22.10;;;;;;;;;;5013854;28;20185;-45
2022/02/26 08:02:15;;;;;;;76.43;20.53;;;;;;;;;;5013697;28;20478;-45
2022/02/26 08:04:41;;;;;;;44.30;17.13;;;;;;;;;;5014188;28;20422;-44
2022/02/26 08:07:07;;;;;;;94.17;22.27;;;;;;;;;;5013742;28;20416;-45
2022/02/26 08:09:33;;;;;;;178.20;25.90;;;;;;;;;;5013524;28;20879;-45
2022/02/26 08:11:59;;;;;;;150.52;24.27;;;;;;;;;;5013699;28;20675;-45
2022/02/26 08:14:24;;;;;;;85.30;20.63;;;;;;;;;;5013847;28;20300;-45
2022/02/26 08:16:50;;;;;;;123.17;22.37;;;;;;;;;;5013682;28;20411;-45
2022/02/26 08:19:17;;;;;;;119.50;20.93;;;;;;;;;;5013443;28;20406;-45
2022/02/26 08:21:43;;;;;;;158.57;22.65;;;;;;;;;;5013442;28;20407;-45
2022/02/26 08:24:11;;;;;;;198.60;23.40;;;;;;;;;;5013178;28;20192;-45
2022/02/26 08:26:37;;;;;;;92.32;19.00;;;;;;;;;;5013109;28;20419;-45
2022/02/26 08:29:03;;;;;;;75.72;18.70;;;;;;;;;;5013128;28;20172;-49
2022/02/26 08:31:29;;;;;;;252.57;29.23;;;;;;;;;;5013231;28;20165;-45
2022/02/26 08:33:55;;;;;;;119.20;23.60;;;;;;;;;;5013176;28;20200;-44
2022/02/26 08:36:21;;;;;;;75.53;19.50;;;;;;;;;;5013049;28;20411;-45
2022/02/26 08:38:49;;;;;;;47.28;17.50;;;;;;;;;;5013056;28;20179;-45
2022/02/26 08:41:15;;;;;;;84.95;19.27;;;;;;;;;;5013248;28;20164;-45
2022/02/26 08:43:41;;;;;;;73.75;18.42;;;;;;;;;;5013119;28;20192;-45
2022/02/26 08:46:07;;;;;;;101.47;18.60;;;;;;;;;;5013085;28;20176;-44
2022/02/26 08:48:33;;;;;;;77.33;19.53;;;;;;;;;;5012973;28;20541;-45
2022/02/26 08:50:59;;;;;;;92.65;17.33;;;;;;;;;;5012685;28;20802;-45
2022/02/26 08:53:25;;;;;;;44.43;15.90;;;;;;;;;;5012817;28;20171;-45
2022/02/26 08:55:51;;;;;;;121.00;21.00;;;;;;;;;;5013122;28;20388;-45
2022/02/26 08:58:17;;;;;;;40.53;16.70;;;;;;;;;;5012575;28;20538;-45
2022/02/26 09:00:44;;;;;;;47.45;16.85;;;;;;;;;;5012495;28;20465;-45
2022/02/26 09:03:10;;;;;;;57.97;16.30;;;;;;;;;;5012640;28;20328;-45
2022/02/26 09:05:36;;;;;;;96.30;20.77;;;;;;;;;;5012725;28;20168;-45
2022/02/26 09:08:02;;;;;;;91.57;19.65;;;;;;;;;;5012479;28;20420;-44
2022/02/26 09:10:28;;;;;;;60.80;16.90;;;;;;;;;;5012405;28;20176;-45
2022/02/26 09:12:54;;;;;;;53.07;18.23;;;;;;;;;;5012457;28;20172;-45
2022/02/26 09:15:20;;;;;;;58.27;17.63;;;;;;;;;;5012376;28;20418;-45
2022/02/26 09:17:46;;;;;;;32.42;15.75;;;;;;;;;;5012309;28;20427;-45
2022/02/26 09:20:12;;;;;;;36.43;15.20;;;;;;;;;;5012258;28;20168;-45
2022/02/26 09:22:39;;;;;;;60.13;15.38;;;;;;;;;;5012320;28;20459;-45
2022/02/26 09:25:05;;;;;;;46.17;15.00;;;;;;;;;;5011481;28;20173;-45
2022/02/26 09:27:31;;;;;;;39.53;15.15;;;;;;;;;;5012075;28;20668;-45
2022/02/26 09:29:58;;;;;;;43.17;14.90;;;;;;;;;;5012062;28;20263;-45
2022/02/26 09:32:27;;;;;;;37.30;14.32;;;;;;;;;;5011817;28;20407;-45
2022/02/26 09:34:53;;;;;;;41.05;14.70;;;;;;;;;;5012557;28;20587;-46
2022/02/26 09:37:19;;;;;;;33.15;14.95;;;;;;;;;;5011667;28;20259;-45
2022/02/26 09:39:45;;;;;;;36.05;16.52;;;;;;;;;;5012020;28;20172;-45
2022/02/26 09:42:11;;;;;;;34.80;16.80;;;;;;;;;;5011833;28;20355;-45
2022/02/26 09:44:37;;;;;;;32.07;15.73;;;;;;;;;;5012022;28;20457;-45
2022/02/26 09:47:04;;;;;;;27.03;13.53;;;;;;;;;;5011839;28;20420;-46
2022/02/26 09:49:30;;;;;;;33.83;15.00;;;;;;;;;;5011451;28;20408;-46
2022/02/26 09:51:57;;;;;;;31.27;15.60;;;;;;;;;;5011651;28;20451;-46
2022/02/26 09:54:23;;;;;;;24.77;13.07;;;;;;;;;;5011879;28;20401;-46
2022/02/26 09:56:49;;;;;;;28.20;13.43;;;;;;;;;;5011525;28;20519;-46
2022/02/26 09:59:15;;;;;;;21.03;12.53;;;;;;;;;;5011595;28;20431;-46
2022/02/26 10:01:54;;;;;;;19.50;11.50;;;;;;;;;;5011466;28;20834;-46
2022/02/26 10:04:20;;;;;;;24.60;12.50;;;;;;;;;;5011761;28;20421;-46
2022/02/26 10:06:46;;;;;;;29.07;14.00;;;;;;;;;;5011235;28;20489;-46
2022/02/26 10:09:16;;;;;;;26.90;12.67;;;;;;;;;;5011502;28;20491;-46
2022/02/26 10:11:43;;;;;;;24.03;12.63;;;;;;;;;;5011219;28;20407;-46
2022/02/26 10:14:13;;;;;;;21.63;12.73;;;;;;;;;;5011546;28;20395;-46
2022/02/26 10:16:45;;;;;;;22.63;13.80;;;;;;;;;;5011333;28;20401;-47
2022/02/26 10:19:11;;;;;;;23.63;12.10;;;;;;;;;;5011264;28;20454;-46
2022/02/26 10:21:41;;;;;;;21.23;12.20;;;;;;;;;;5011304;28;20408;-47
2022/02/26 10:24:07;;;;;;;20.60;12.07;;;;;;;;;;5011724;28;20476;-47
2022/02/26 10:26:34;;;;;;;22.20;12.53;;;;;;;;;;5011615;28;20430;-47
2022/02/26 10:29:08;;;;;;;21.50;12.83;;;;;;;;;;5011139;28;20406;-46
2022/02/26 10:31:42;;;;;;;25.50;14.80;;;;;;;;;;5011396;28;20404;-47
2022/02/26 10:34:27;;;;;;;23.23;12.50;;;;;;;;;;5010992;28;20435;-47
2022/02/26 10:37:00;;;;;;;21.20;11.27;;;;;;;;;;5011155;28;20389;-47
2022/02/26 10:39:30;;;;;;;24.20;11.40;;;;;;;;;;5010999;28;20369;-47
2022/02/26 10:41:57;;;;;;;23.77;11.97;;;;;;;;;;5010979;28;20863;-47
2022/02/26 10:44:23;;;;;;;20.67;11.73;;;;;;;;;;5011145;28;20388;-47
2022/02/26 10:46:50;;;;;;;21.60;10.93;;;;;;;;;;5010878;28;20431;-47
2022/02/26 10:49:17;;;;;;;18.80;10.90;;;;;;;;;;5012278;28;20392;-47
2022/02/26 10:51:45;;;;;;;17.27;11.63;;;;;;;;;;5015383;28;20400;-48
2022/02/26 10:54:17;;;;;;;20.90;10.43;;;;;;;;;;5015271;28;20912;-47
2022/02/26 10:56:44;;;;;;;21.73;10.03;;;;;;;;;;5014893;28;20426;-47
2022/02/26 10:59:11;;;;;;;17.60;8.80;;;;;;;;;;5014871;28;20880;-48
2022/02/26 11:01:38;;;;;;;17.60;9.10;;;;;;;;;;5014506;28;20895;-47
2022/02/26 11:04:04;;;;;;;16.17;8.03;;;;;;;;;;5014659;28;20516;-47
2022/02/26 11:06:32;;;;;;;11.63;5.27;;;;;;;;;;5014638;28;20883;-47
2022/02/26 11:08:58;;;;;;;8.97;4.00;;;;;;;;;;5014651;28;20432;-47
2022/02/26 11:11:24;;;;;;;7.57;3.20;;;;;;;;;;5014767;28;21066;-47
2022/02/26 11:13:51;;;;;;;11.23;3.83;;;;;;;;;;5013248;28;20389;-47
2022/02/26 11:16:18;;;;;;;9.57;4.00;;;;;;;;;;5014476;28;20396;-47
2022/02/26 11:18:48;;;;;;;11.03;5.40;;;;;;;;;;5014493;28;20382;-47
2022/02/26 11:21:18;;;;;;;11.23;4.30;;;;;;;;;;5014489;28;20377;-47
2022/02/26 11:23:45;;;;;;;11.70;4.30;;;;;;;;;;5014463;28;20973;-47
2022/02/26 11:26:11;;;;;;;10.53;3.57;;;;;;;;;;5014483;28;20416;-47
2022/02/26 11:28:38;;;;;;;12.40;3.93;;;;;;;;;;5014197;28;20479;-47
2022/02/26 11:31:11;;;;;;;14.33;4.10;;;;;;;;;;5014296;28;20466;-46
2022/02/26 11:33:38;;;;;;;15.07;4.07;;;;;;;;;;5014434;28;20490;-46
2022/02/26 11:36:05;;;;;;;12.10;4.20;;;;;;;;;;5014350;28;20791;-46
2022/02/26 11:38:34;;;;;;;9.53;2.70;;;;;;;;;;5014251;28;20430;-46
2022/02/26 11:41:19;;;;;;;9.27;2.80;;;;;;;;;;5014009;28;20403;-47
2022/02/26 11:43:46;;;;;;;10.47;3.00;;;;;;;;;;5013718;28;20432;-46
2022/02/26 11:46:27;;;;;;;20.93;3.40;;;;;;;;;;5014514;28;20498;-46
2022/02/26 11:48:54;;;;;;;11.90;2.80;;;;;;;;;;5013949;28;21000;-46
2022/02/26 11:51:20;;;;;;;12.53;3.07;;;;;;;;;;5014166;28;20407;-46
2022/02/26 11:53:47;;;;;;;9.50;4.23;;;;;;;;;;5013952;28;20887;-46
2022/02/26 11:56:13;;;;;;;13.60;3.23;;;;;;;;;;5013689;28;20442;-46
2022/02/26 11:58:39;;;;;;;8.50;3.10;;;;;;;;;;5013837;28;20405;-46
2022/02/26 12:01:13;;;;;;;15.37;3.27;;;;;;;;;;5012949;28;20818;-46
2022/02/26 12:03:42;;;;;;;15.73;3.33;;;;;;;;;;5013681;28;20550;-46
2022/02/26 12:06:11;;;;;;;7.23;2.70;;;;;;;;;;5013638;28;20409;-47
2022/02/26 12:08:39;;;;;;;11.10;3.20;;;;;;;;;;5013616;28;20421;-46
2022/02/26 12:11:06;;;;;;;20.70;4.63;;;;;;;;;;5013511;28;20403;-46
2022/02/26 12:13:36;;;;;;;6.03;2.80;;;;;;;;;;5012602;28;20430;-46
2022/02/26 12:16:08;;;;;;;10.73;3.53;;;;;;;;;;5010182;28;20427;-47
2022/02/26 12:18:41;;;;;;;9.43;2.63;;;;;;;;;;5013489;28;20438;-47
2022/02/26 12:21:11;;;;;;;8.27;3.10;;;;;;;;;;5013471;28;20416;-46
2022/02/26 12:23:37;;;;;;;9.50;2.70;;;;;;;;;;5013010;28;20984;-47
2022/02/26 12:26:04;;;;;;;14.13;3.47;;;;;;;;;;5013406;28;20455;-46
2022/02/26 12:28:30;;;;;;;7.97;2.33;;;;;;;;;;5013568;28;20399;-46
2022/02/26 12:31:07;;;;;;;9.00;2.60;;;;;;;;;;5013519;28;20765;-47
2022/02/26 12:33:51;;;;;;;12.73;3.20;;;;;;;;;;5012505;28;20438;-46
2022/02/26 12:36:19;;;;;;;6.80;2.50;;;;;;;;;;5011848;28;20887;-46
2022/02/26 12:38:49;;;;;;;9.50;3.30;;;;;;;;;;5013431;28;20410;-46
2022/02/26 12:41:35;;;;;;;6.07;2.93;;;;;;;;;;5013284;28;20374;-46
2022/02/26 12:44:02;;;;;;;6.60;2.90;;;;;;;;;;5013171;28;20509;-47
2022/02/26 12:46:28;;;;;;;12.07;3.00;;;;;;;;;;5012780;28;20405;-46
2022/02/26 12:49:02;;;;;;;5.37;2.80;;;;;;;;;;5012659;28;20406;-47
2022/02/26 12:51:32;;;;;;;17.97;4.17;;;;;;;;;;5012594;28;20375;-46
2022/02/26 12:53:58;;;;;;;8.63;2.93;;;;;;;;;;5011732;28;20378;-46
2022/02/26 12:56:35;;;;;;;9.07;3.33;;;;;;;;;;5012750;28;20493;-46
2022/02/26 12:59:10;;;;;;;10.37;3.33;;;;;;;;;;5012476;28;20415;-46
2022/02/26 13:01:39;;;;;;;8.77;3.80;;;;;;;;;;5012803;28;20381;-46
2022/02/26 13:04:06;;;;;;;8.57;3.00;;;;;;;;;;5013329;28;20499;-47
2022/02/26 13:06:32;;;;;;;9.00;3.40;;;;;;;;;;5012645;28;20404;-48
2022/02/26 13:08:58;;;;;;;10.23;2.70;;;;;;;;;;5012515;28;20879;-47
2022/02/26 13:11:24;;;;;;;10.57;3.83;;;;;;;;;;5012216;28;20400;-47
2022/02/26 13:14:03;;;;;;;12.57;3.20;;;;;;;;;;5012236;28;20832;-47
2022/02/26 13:16:29;;;;;;;6.60;2.70;;;;;;;;;;5012540;28;20404;-47
2022/02/26 13:18:57;;;;;;;6.33;2.63;;;;;;;;;;5012224;28;20476;-47
2022/02/26 13:21:23;;;;;;;7.63;2.60;;;;;;;;;;5012501;28;20382;-47
2022/02/26 13:23:50;;;;;;;10.90;3.77;;;;;;;;;;5012572;28;20945;-47
2022/02/26 13:26:26;;;;;;;6.53;3.17;;;;;;;;;;5012127;28;20461;-47
2022/02/26 13:28:53;;;;;;;12.20;2.90;;;;;;;;;;5012109;28;20398;-47
2022/02/26 13:31:20;;;;;;;10.60;3.57;;;;;;;;;;5012371;28;20447;-47
2022/02/26 13:33:46;;;;;;;12.10;3.60;;;;;;;;;;5012121;28;20471;-47
2022/02/26 13:36:12;;;;;;;6.60;2.67;;;;;;;;;;5012083;28;20404;-47
2022/02/26 13:38:39;;;;;;;9.60;3.83;;;;;;;;;;5012035;28;20497;-47
2022/02/26 13:41:11;;;;;;;8.93;3.23;;;;;;;;;;5013199;28;20534;-47
2022/02/26 13:43:37;;;;;;;11.53;2.73;;;;;;;;;;4992290;28;20463;-47
2022/02/26 13:46:03;;;;;;;9.53;3.37;;;;;;;;;;5000464;28;20492;-47
2022/02/26 13:48:29;;;;;;;10.50;2.90;;;;;;;;;;5012147;28;20428;-47
2022/02/26 13:50:58;;;;;;;6.77;2.90;;;;;;;;;;5011368;28;20405;-47
2022/02/26 13:53:25;;;;;;;8.97;2.87;;;;;;;;;;5010580;28;20422;-47
2022/02/26 13:55:52;;;;;;;7.00;3.20;;;;;;;;;;5011811;28;20498;-47
2022/02/26 13:58:27;;;;;;;9.50;3.33;;;;;;;;;;5011557;28;20521;-47
2022/02/26 14:01:08;;;;;;;7.53;3.10;;;;;;;;;;5011461;28;20458;-47
2022/02/26 14:03:38;;;;;;;3.77;2.30;;;;;;;;;;5011577;28;20948;-46
2022/02/26 14:06:07;;;;;;;9.80;2.93;;;;;;;;;;5011558;28;20402;-47
2022/02/26 14:08:33;;;;;;;8.57;2.93;;;;;;;;;;5011861;28;20456;-46
2022/02/26 14:11:00;;;;;;;7.83;2.20;;;;;;;;;;5011354;28;20827;-47
2022/02/26 14:13:26;;;;;;;6.73;2.47;;;;;;;;;;5011484;28;20438;-47
2022/02/26 14:15:52;;;;;;;7.97;3.13;;;;;;;;;;5010787;28;20425;-47
2022/02/26 14:18:21;;;;;;;6.70;2.43;;;;;;;;;;5010165;28;20462;-47
2022/02/26 14:20:48;;;;;;;9.03;2.27;;;;;;;;;;5009846;28;20756;-47